sensor_id;sensor_type;location;lat;lon;timestamp;P1;durP1;ratioP1;P2;durP2;ratioP2
58685;SDS011;44465;53.206;-6.106;2023-07-24T00:01:14;5.70;;;2.08;;
58685;SDS011;44465;53.206;-6.106;2023-07-24T00:03:40;4.10;;;1.73;;
58685;SDS011;44465;53.206;-6.106;2023-07-24T00:06:05;2.58;;;1.70;;
58685;SDS011;44465;53.206;-6.106;2023-07-24T00:08:31;4.78;;;2.17;;
58685;SDS011;44465;53.206;-6.106;2023-07-24T00:10:56;2.58;;;1.77;;
58685;SDS011;44465;53.206;-6.106;2023-07-24T00:13:22;2.13;;;1.23;;
58685;SDS011;44465;53.206;-6.106;2023-07-24T00:15:47;2.92;;;1.52;;
58685;SDS011;44465;53.206;-6.106;2023-07-24T00:18:13;2.10;;;1.50;;
58685;SDS011;44465;53.206;-6.106;2023-07-24T00:20:38;2.70;;;1.65;;
58685;SDS011;44465;53.206;-6.106;2023-07-24T00:23:04;3.63;;;2.00;;
58685;SDS011;44465;53.206;-6.106;2023-07-24T00:25:29;2.88;;;1.70;;
58685;SDS011;44465;53.206;-6.106;2023-07-24T00:27:55;3.75;;;1.63;;
58685;SDS011;44465;53.206;-6.106;2023-07-24T00:30:20;3.97;;;2.10;;
58685;SDS011;44465;53.206;-6.106;2023-07-24T00:32:46;2.47;;;1.90;;
58685;SDS011;44465;53.206;-6.106;2023-07-24T00:35:11;2.70;;;1.63;;
58685;SDS011;44465;53.206;-6.106;2023-07-24T00:37:37;3.85;;;1.80;;
58685;SDS011;44465;53.206;-6.106;2023-07-24T00:40:02;2.22;;;1.60;;
58685;SDS011;44465;53.206;-6.106;2023-07-24T00:42:29;2.35;;;1.50;;
58685;SDS011;44465;53.206;-6.106;2023-07-24T00:44:54;2.90;;;1.77;;
58685;SDS011;44465;53.206;-6.106;2023-07-24T00:47:20;3.60;;;1.83;;
58685;SDS011;44465;53.206;-6.106;2023-07-24T00:49:46;3.53;;;1.55;;
58685;SDS011;44465;53.206;-6.106;2023-07-24T00:52:12;4.18;;;1.95;;
58685;SDS011;44465;53.206;-6.106;2023-07-24T00:54:38;2.10;;;1.60;;
58685;SDS011;44465;53.206;-6.106;2023-07-24T00:57:04;3.30;;;1.70;;
58685;SDS011;44465;53.206;-6.106;2023-07-24T00:59:30;3.78;;;1.98;;
58685;SDS011;44465;53.206;-6.106;2023-07-24T01:01:57;2.30;;;1.42;;
58685;SDS011;44465;53.206;-6.106;2023-07-24T01:04:22;5.45;;;1.92;;
58685;SDS011;44465;53.206;-6.106;2023-07-24T01:06:48;1.88;;;1.45;;
58685;SDS011;44465;53.206;-6.106;2023-07-24T01:09:14;3.58;;;2.15;;
58685;SDS011;44465;53.206;-6.106;2023-07-24T01:12:02;2.33;;;1.50;;
58685;SDS011;44465;53.206;-6.106;2023-07-24T01:14:49;3.80;;;1.90;;
58685;SDS011;44465;53.206;-6.106;2023-07-24T01:17:19;2.60;;;1.67;;
58685;SDS011;44465;53.206;-6.106;2023-07-24T01:19:49;2.97;;;1.90;;
58685;SDS011;44465;53.206;-6.106;2023-07-24T01:28:06;2.17;;;1.60;;
58685;SDS011;44465;53.206;-6.106;2023-07-24T01:30:32;2.80;;;1.67;;
58685;SDS011;44465;53.206;-6.106;2023-07-24T01:32:57;2.35;;;1.70;;
58685;SDS011;44465;53.206;-6.106;2023-07-24T01:35:23;2.97;;;1.77;;
58685;SDS011;44465;53.206;-6.106;2023-07-24T01:37:49;4.93;;;1.52;;
58685;SDS011;44465;53.206;-6.106;2023-07-24T01:40:16;2.97;;;1.63;;
58685;SDS011;44465;53.206;-6.106;2023-07-24T01:42:42;1.60;;;1.45;;
58685;SDS011;44465;53.206;-6.106;2023-07-24T01:45:08;3.83;;;1.80;;
58685;SDS011;44465;53.206;-6.106;2023-07-24T01:47:34;2.08;;;1.70;;
58685;SDS011;44465;53.206;-6.106;2023-07-24T01:49:59;3.58;;;1.50;;
58685;SDS011;44465;53.206;-6.106;2023-07-24T01:52:25;2.72;;;1.50;;
58685;SDS011;44465;53.206;-6.106;2023-07-24T01:54:51;3.35;;;2.08;;
58685;SDS011;44465;53.206;-6.106;2023-07-24T01:57:16;3.88;;;1.60;;
58685;SDS011;44465;53.206;-6.106;2023-07-24T01:59:42;5.07;;;1.60;;
58685;SDS011;44465;53.206;-6.106;2023-07-24T02:02:09;2.55;;;1.58;;
58685;SDS011;44465;53.206;-6.106;2023-07-24T02:04:34;1.95;;;1.73;;
58685;SDS011;44465;53.206;-6.106;2023-07-24T02:07:00;1.90;;;1.63;;
58685;SDS011;44465;53.206;-6.106;2023-07-24T02:09:25;1.95;;;1.27;;
58685;SDS011;44465;53.206;-6.106;2023-07-24T02:11:50;2.40;;;1.38;;
58685;SDS011;44465;53.206;-6.106;2023-07-24T02:14:17;2.17;;;1.50;;
58685;SDS011;44465;53.206;-6.106;2023-07-24T02:16:43;3.25;;;1.55;;
58685;SDS011;44465;53.206;-6.106;2023-07-24T02:19:08;3.03;;;1.67;;
58685;SDS011;44465;53.206;-6.106;2023-07-24T02:21:34;2.67;;;1.70;;
58685;SDS011;44465;53.206;-6.106;2023-07-24T02:24:00;1.80;;;1.58;;
58685;SDS011;44465;53.206;-6.106;2023-07-24T02:26:25;2.00;;;1.67;;
58685;SDS011;44465;53.206;-6.106;2023-07-24T02:28:51;3.17;;;1.67;;
58685;SDS011;44465;53.206;-6.106;2023-07-24T02:31:16;2.33;;;1.40;;
58685;SDS011;44465;53.206;-6.106;2023-07-24T02:33:42;2.00;;;1.70;;
58685;SDS011;44465;53.206;-6.106;2023-07-24T02:36:07;2.25;;;1.60;;
58685;SDS011;44465;53.206;-6.106;2023-07-24T02:38:33;3.00;;;1.60;;
58685;SDS011;44465;53.206;-6.106;2023-07-24T02:40:59;2.85;;;1.70;;
58685;SDS011;44465;53.206;-6.106;2023-07-24T02:43:24;3.22;;;1.65;;
58685;SDS011;44465;53.206;-6.106;2023-07-24T02:45:50;2.42;;;1.52;;
58685;SDS011;44465;53.206;-6.106;2023-07-24T02:48:15;3.65;;;1.63;;
58685;SDS011;44465;53.206;-6.106;2023-07-24T02:50:41;1.92;;;1.35;;
58685;SDS011;44465;53.206;-6.106;2023-07-24T02:53:06;2.97;;;1.48;;
58685;SDS011;44465;53.206;-6.106;2023-07-24T02:55:32;2.63;;;1.33;;
58685;SDS011;44465;53.206;-6.106;2023-07-24T02:57:57;2.45;;;1.42;;
58685;SDS011;44465;53.206;-6.106;2023-07-24T03:00:23;2.83;;;1.85;;
58685;SDS011;44465;53.206;-6.106;2023-07-24T03:02:48;2.15;;;1.40;;
58685;SDS011;44465;53.206;-6.106;2023-07-24T03:05:14;2.20;;;1.48;;
58685;SDS011;44465;53.206;-6.106;2023-07-24T03:07:39;1.52;;;1.10;;
58685;SDS011;44465;53.206;-6.106;2023-07-24T03:10:05;3.10;;;1.60;;
58685;SDS011;44465;53.206;-6.106;2023-07-24T03:12:31;3.40;;;1.35;;
58685;SDS011;44465;53.206;-6.106;2023-07-24T03:14:56;3.30;;;1.63;;
58685;SDS011;44465;53.206;-6.106;2023-07-24T03:17:22;3.67;;;1.98;;
58685;SDS011;44465;53.206;-6.106;2023-07-24T03:19:48;3.45;;;1.75;;
58685;SDS011;44465;53.206;-6.106;2023-07-24T03:22:14;1.35;;;1.25;;
58685;SDS011;44465;53.206;-6.106;2023-07-24T03:24:40;2.05;;;1.00;;
58685;SDS011;44465;53.206;-6.106;2023-07-24T03:27:05;2.63;;;1.58;;
58685;SDS011;44465;53.206;-6.106;2023-07-24T03:29:31;1.92;;;1.40;;
58685;SDS011;44465;53.206;-6.106;2023-07-24T03:31:56;3.10;;;1.70;;
58685;SDS011;44465;53.206;-6.106;2023-07-24T03:34:22;3.25;;;1.40;;
58685;SDS011;44465;53.206;-6.106;2023-07-24T03:36:47;3.08;;;1.38;;
58685;SDS011;44465;53.206;-6.106;2023-07-24T03:39:12;2.60;;;1.50;;
58685;SDS011;44465;53.206;-6.106;2023-07-24T03:41:38;2.70;;;1.40;;
58685;SDS011;44465;53.206;-6.106;2023-07-24T03:44:04;3.38;;;1.73;;
58685;SDS011;44465;53.206;-6.106;2023-07-24T03:46:31;3.78;;;1.38;;
58685;SDS011;44465;53.206;-6.106;2023-07-24T03:48:57;1.75;;;1.17;;
58685;SDS011;44465;53.206;-6.106;2023-07-24T03:51:23;5.13;;;1.60;;
58685;SDS011;44465;53.206;-6.106;2023-07-24T03:53:48;3.53;;;1.50;;
58685;SDS011;44465;53.206;-6.106;2023-07-24T03:56:13;2.20;;;1.42;;
58685;SDS011;44465;53.206;-6.106;2023-07-24T03:58:39;1.77;;;1.13;;
58685;SDS011;44465;53.206;-6.106;2023-07-24T04:01:05;2.40;;;1.48;;
58685;SDS011;44465;53.206;-6.106;2023-07-24T04:03:30;2.22;;;1.42;;
58685;SDS011;44465;53.206;-6.106;2023-07-24T04:05:56;2.67;;;1.48;;
58685;SDS011;44465;53.206;-6.106;2023-07-24T04:08:21;2.53;;;1.40;;
58685;SDS011;44465;53.206;-6.106;2023-07-24T04:10:47;2.03;;;1.42;;
58685;SDS011;44465;53.206;-6.106;2023-07-24T04:13:12;1.92;;;1.40;;
58685;SDS011;44465;53.206;-6.106;2023-07-24T04:15:38;3.17;;;1.60;;
58685;SDS011;44465;53.206;-6.106;2023-07-24T04:18:04;1.77;;;1.40;;
58685;SDS011;44465;53.206;-6.106;2023-07-24T04:20:30;2.80;;;1.30;;
58685;SDS011;44465;53.206;-6.106;2023-07-24T04:22:56;2.67;;;1.40;;
58685;SDS011;44465;53.206;-6.106;2023-07-24T04:25:21;2.45;;;1.50;;
58685;SDS011;44465;53.206;-6.106;2023-07-24T04:27:47;5.15;;;1.73;;
58685;SDS011;44465;53.206;-6.106;2023-07-24T04:30:12;3.78;;;1.58;;
58685;SDS011;44465;53.206;-6.106;2023-07-24T04:32:38;1.58;;;1.38;;
58685;SDS011;44465;53.206;-6.106;2023-07-24T04:35:03;2.05;;;1.17;;
58685;SDS011;44465;53.206;-6.106;2023-07-24T04:37:29;2.42;;;1.25;;
58685;SDS011;44465;53.206;-6.106;2023-07-24T04:39:55;3.53;;;1.70;;
58685;SDS011;44465;53.206;-6.106;2023-07-24T04:42:21;3.22;;;1.40;;
58685;SDS011;44465;53.206;-6.106;2023-07-24T04:44:46;2.75;;;1.80;;
58685;SDS011;44465;53.206;-6.106;2023-07-24T04:47:12;3.22;;;1.70;;
58685;SDS011;44465;53.206;-6.106;2023-07-24T04:49:37;2.50;;;1.52;;
58685;SDS011;44465;53.206;-6.106;2023-07-24T04:52:03;2.97;;;1.85;;
58685;SDS011;44465;53.206;-6.106;2023-07-24T04:54:29;3.15;;;1.50;;
58685;SDS011;44465;53.206;-6.106;2023-07-24T04:56:54;3.92;;;1.63;;
58685;SDS011;44465;53.206;-6.106;2023-07-24T04:59:19;3.95;;;1.65;;
58685;SDS011;44465;53.206;-6.106;2023-07-24T05:01:45;2.70;;;1.38;;
58685;SDS011;44465;53.206;-6.106;2023-07-24T05:04:10;3.33;;;1.58;;
58685;SDS011;44465;53.206;-6.106;2023-07-24T05:06:36;1.67;;;1.33;;
58685;SDS011;44465;53.206;-6.106;2023-07-24T05:09:03;1.40;;;1.27;;
58685;SDS011;44465;53.206;-6.106;2023-07-24T05:11:29;2.53;;;1.25;;
58685;SDS011;44465;53.206;-6.106;2023-07-24T05:13:54;2.25;;;1.48;;
58685;SDS011;44465;53.206;-6.106;2023-07-24T05:16:20;1.42;;;1.13;;
58685;SDS011;44465;53.206;-6.106;2023-07-24T05:18:45;2.80;;;1.42;;
58685;SDS011;44465;53.206;-6.106;2023-07-24T05:21:10;2.00;;;1.27;;
58685;SDS011;44465;53.206;-6.106;2023-07-24T05:23:36;2.17;;;1.20;;
58685;SDS011;44465;53.206;-6.106;2023-07-24T05:26:02;1.85;;;1.20;;
58685;SDS011;44465;53.206;-6.106;2023-07-24T05:28:29;2.00;;;1.50;;
58685;SDS011;44465;53.206;-6.106;2023-07-24T05:30:55;4.85;;;1.80;;
58685;SDS011;44465;53.206;-6.106;2023-07-24T05:33:20;2.42;;;1.30;;
58685;SDS011;44465;53.206;-6.106;2023-07-24T05:35:47;1.35;;;1.23;;
58685;SDS011;44465;53.206;-6.106;2023-07-24T05:38:13;2.05;;;1.20;;
58685;SDS011;44465;53.206;-6.106;2023-07-24T05:40:39;3.47;;;1.75;;
58685;SDS011;44465;53.206;-6.106;2023-07-24T05:43:04;1.90;;;1.20;;
58685;SDS011;44465;53.206;-6.106;2023-07-24T05:45:30;2.20;;;1.42;;
58685;SDS011;44465;53.206;-6.106;2023-07-24T05:47:55;1.83;;;1.30;;
58685;SDS011;44465;53.206;-6.106;2023-07-24T05:50:21;2.33;;;1.40;;
58685;SDS011;44465;53.206;-6.106;2023-07-24T05:52:46;2.97;;;1.42;;
58685;SDS011;44465;53.206;-6.106;2023-07-24T05:55:11;1.70;;;1.60;;
58685;SDS011;44465;53.206;-6.106;2023-07-24T05:57:37;2.15;;;1.13;;
58685;SDS011;44465;53.206;-6.106;2023-07-24T06:00:03;4.85;;;1.50;;
58685;SDS011;44465;53.206;-6.106;2023-07-24T06:02:36;1.23;;;1.10;;
58685;SDS011;44465;53.206;-6.106;2023-07-24T06:05:02;2.90;;;1.60;;
58685;SDS011;44465;53.206;-6.106;2023-07-24T06:07:27;1.85;;;1.20;;
58685;SDS011;44465;53.206;-6.106;2023-07-24T06:09:53;1.63;;;1.30;;
58685;SDS011;44465;53.206;-6.106;2023-07-24T06:12:18;2.05;;;1.30;;
58685;SDS011;44465;53.206;-6.106;2023-07-24T06:14:43;1.90;;;1.30;;
58685;SDS011;44465;53.206;-6.106;2023-07-24T06:17:09;1.85;;;1.20;;
58685;SDS011;44465;53.206;-6.106;2023-07-24T06:19:34;4.25;;;1.60;;
58685;SDS011;44465;53.206;-6.106;2023-07-24T06:22:00;3.45;;;1.40;;
58685;SDS011;44465;53.206;-6.106;2023-07-24T06:24:25;1.88;;;1.38;;
58685;SDS011;44465;53.206;-6.106;2023-07-24T06:26:51;1.95;;;1.45;;
58685;SDS011;44465;53.206;-6.106;2023-07-24T06:29:16;3.45;;;1.30;;
58685;SDS011;44465;53.206;-6.106;2023-07-24T06:31:42;1.95;;;1.10;;
58685;SDS011;44465;53.206;-6.106;2023-07-24T06:34:07;1.70;;;1.35;;
58685;SDS011;44465;53.206;-6.106;2023-07-24T06:36:32;2.90;;;1.55;;
58685;SDS011;44465;53.206;-6.106;2023-07-24T06:38:58;1.00;;;0.95;;
58685;SDS011;44465;53.206;-6.106;2023-07-24T06:41:24;2.00;;;1.20;;
58685;SDS011;44465;53.206;-6.106;2023-07-24T06:43:50;1.38;;;1.10;;
58685;SDS011;44465;53.206;-6.106;2023-07-24T06:46:16;1.10;;;0.93;;
58685;SDS011;44465;53.206;-6.106;2023-07-24T06:48:41;3.05;;;1.70;;
58685;SDS011;44465;53.206;-6.106;2023-07-24T06:51:07;2.75;;;1.40;;
58685;SDS011;44465;53.206;-6.106;2023-07-24T06:53:32;1.17;;;1.05;;
58685;SDS011;44465;53.206;-6.106;2023-07-24T06:55:57;1.30;;;1.08;;
58685;SDS011;44465;53.206;-6.106;2023-07-24T06:58:23;2.83;;;1.30;;
58685;SDS011;44465;53.206;-6.106;2023-07-24T07:00:48;2.08;;;1.38;;
58685;SDS011;44465;53.206;-6.106;2023-07-24T07:03:14;1.88;;;1.20;;
58685;SDS011;44465;53.206;-6.106;2023-07-24T07:05:39;1.67;;;1.40;;
58685;SDS011;44465;53.206;-6.106;2023-07-24T07:08:05;1.88;;;0.93;;
58685;SDS011;44465;53.206;-6.106;2023-07-24T07:10:30;1.50;;;1.05;;
58685;SDS011;44465;53.206;-6.106;2023-07-24T07:12:56;2.38;;;1.50;;
58685;SDS011;44465;53.206;-6.106;2023-07-24T07:15:21;2.22;;;1.27;;
58685;SDS011;44465;53.206;-6.106;2023-07-24T07:17:47;2.25;;;1.10;;
58685;SDS011;44465;53.206;-6.106;2023-07-24T07:20:12;2.15;;;1.30;;
58685;SDS011;44465;53.206;-6.106;2023-07-24T07:22:38;1.80;;;1.42;;
58685;SDS011;44465;53.206;-6.106;2023-07-24T07:25:03;1.13;;;0.90;;
58685;SDS011;44465;53.206;-6.106;2023-07-24T07:27:29;1.55;;;1.45;;
58685;SDS011;44465;53.206;-6.106;2023-07-24T07:29:54;1.10;;;0.93;;
58685;SDS011;44465;53.206;-6.106;2023-07-24T07:32:20;1.08;;;0.80;;
58685;SDS011;44465;53.206;-6.106;2023-07-24T07:34:45;2.00;;;1.17;;
58685;SDS011;44465;53.206;-6.106;2023-07-24T07:37:11;2.17;;;1.20;;
58685;SDS011;44465;53.206;-6.106;2023-07-24T07:39:36;2.67;;;1.17;;
58685;SDS011;44465;53.206;-6.106;2023-07-24T07:42:01;1.67;;;1.15;;
58685;SDS011;44465;53.206;-6.106;2023-07-24T07:44:28;1.17;;;1.02;;
58685;SDS011;44465;53.206;-6.106;2023-07-24T07:46:53;1.67;;;1.08;;
58685;SDS011;44465;53.206;-6.106;2023-07-24T07:49:18;2.50;;;1.20;;
58685;SDS011;44465;53.206;-6.106;2023-07-24T07:51:44;1.55;;;1.10;;
58685;SDS011;44465;53.206;-6.106;2023-07-24T07:54:09;1.95;;;1.42;;
58685;SDS011;44465;53.206;-6.106;2023-07-24T07:56:35;1.92;;;1.10;;
58685;SDS011;44465;53.206;-6.106;2023-07-24T07:59:00;1.60;;;1.30;;
58685;SDS011;44465;53.206;-6.106;2023-07-24T08:01:26;1.50;;;1.00;;
58685;SDS011;44465;53.206;-6.106;2023-07-24T08:03:51;1.48;;;1.25;;
58685;SDS011;44465;53.206;-6.106;2023-07-24T08:06:17;1.50;;;0.98;;
58685;SDS011;44465;53.206;-6.106;2023-07-24T08:08:42;2.15;;;1.30;;
58685;SDS011;44465;53.206;-6.106;2023-07-24T08:11:08;2.17;;;1.00;;
58685;SDS011;44465;53.206;-6.106;2023-07-24T08:13:33;1.58;;;1.08;;
58685;SDS011;44465;53.206;-6.106;2023-07-24T08:15:59;0.90;;;0.90;;
58685;SDS011;44465;53.206;-6.106;2023-07-24T08:18:26;1.63;;;1.20;;
58685;SDS011;44465;53.206;-6.106;2023-07-24T08:20:52;1.90;;;1.17;;
58685;SDS011;44465;53.206;-6.106;2023-07-24T08:23:17;1.58;;;1.10;;
58685;SDS011;44465;53.206;-6.106;2023-07-24T08:26:01;2.35;;;1.73;;
58685;SDS011;44465;53.206;-6.106;2023-07-24T08:28:27;1.23;;;1.13;;
58685;SDS011;44465;53.206;-6.106;2023-07-24T08:30:56;2.05;;;1.27;;
58685;SDS011;44465;53.206;-6.106;2023-07-24T08:33:23;1.23;;;1.02;;
58685;SDS011;44465;53.206;-6.106;2023-07-24T08:35:58;1.23;;;1.02;;
58685;SDS011;44465;53.206;-6.106;2023-07-24T08:38:33;1.17;;;1.08;;
58685;SDS011;44465;53.206;-6.106;2023-07-24T08:41:09;0.98;;;0.98;;
58685;SDS011;44465;53.206;-6.106;2023-07-24T08:43:37;0.93;;;0.90;;
58685;SDS011;44465;53.206;-6.106;2023-07-24T08:46:03;1.00;;;1.00;;
58685;SDS011;44465;53.206;-6.106;2023-07-24T08:48:34;1.08;;;1.02;;
58685;SDS011;44465;53.206;-6.106;2023-07-24T08:51:03;1.00;;;0.90;;
58685;SDS011;44465;53.206;-6.106;2023-07-24T08:53:30;1.38;;;1.00;;
58685;SDS011;44465;53.206;-6.106;2023-07-24T08:55:57;2.22;;;1.25;;
58685;SDS011;44465;53.206;-6.106;2023-07-24T09:00:50;3.97;;;1.30;;
58685;SDS011;44465;53.206;-6.106;2023-07-24T09:03:17;1.52;;;1.13;;
58685;SDS011;44465;53.206;-6.106;2023-07-24T09:05:44;3.90;;;1.10;;
58685;SDS011;44465;53.206;-6.106;2023-07-24T09:08:10;4.18;;;1.42;;
58685;SDS011;44465;53.206;-6.106;2023-07-24T09:10:35;2.35;;;1.27;;
58685;SDS011;44465;53.206;-6.106;2023-07-24T09:13:01;1.48;;;1.38;;
58685;SDS011;44465;53.206;-6.106;2023-07-24T09:15:29;3.63;;;1.02;;
58685;SDS011;44465;53.206;-6.106;2023-07-24T09:18:04;5.07;;;1.42;;
58685;SDS011;44465;53.206;-6.106;2023-07-24T09:20:37;1.33;;;1.08;;
58685;SDS011;44465;53.206;-6.106;2023-07-24T09:23:07;2.70;;;1.67;;
58685;SDS011;44465;53.206;-6.106;2023-07-24T09:25:34;1.35;;;1.13;;
58685;SDS011;44465;53.206;-6.106;2023-07-24T09:28:01;1.08;;;1.08;;
58685;SDS011;44465;53.206;-6.106;2023-07-24T09:30:33;1.05;;;0.95;;
58685;SDS011;44465;53.206;-6.106;2023-07-24T09:32:59;2.20;;;1.17;;
58685;SDS011;44465;53.206;-6.106;2023-07-24T09:35:24;1.98;;;1.30;;
58685;SDS011;44465;53.206;-6.106;2023-07-24T09:38:05;1.30;;;1.15;;
58685;SDS011;44465;53.206;-6.106;2023-07-24T09:40:41;2.22;;;1.40;;
58685;SDS011;44465;53.206;-6.106;2023-07-24T09:45:43;2.35;;;1.27;;
58685;SDS011;44465;53.206;-6.106;2023-07-24T09:48:10;3.17;;;1.55;;
58685;SDS011;44465;53.206;-6.106;2023-07-24T09:50:39;3.63;;;1.40;;
58685;SDS011;44465;53.206;-6.106;2023-07-24T09:53:15;1.83;;;1.33;;
58685;SDS011;44465;53.206;-6.106;2023-07-24T09:55:52;2.05;;;1.20;;
58685;SDS011;44465;53.206;-6.106;2023-07-24T09:58:23;2.33;;;1.10;;
58685;SDS011;44465;53.206;-6.106;2023-07-24T10:00:49;1.27;;;1.17;;
58685;SDS011;44465;53.206;-6.106;2023-07-24T10:03:15;1.20;;;1.10;;
58685;SDS011;44465;53.206;-6.106;2023-07-24T10:05:43;2.10;;;1.17;;
58685;SDS011;44465;53.206;-6.106;2023-07-24T10:08:10;2.67;;;1.80;;
58685;SDS011;44465;53.206;-6.106;2023-07-24T10:10:36;2.05;;;1.00;;
58685;SDS011;44465;53.206;-6.106;2023-07-24T10:13:03;2.47;;;1.10;;
58685;SDS011;44465;53.206;-6.106;2023-07-24T10:15:29;1.65;;;1.10;;
58685;SDS011;44465;53.206;-6.106;2023-07-24T10:18:05;2.22;;;1.10;;
58685;SDS011;44465;53.206;-6.106;2023-07-24T10:20:32;1.35;;;1.25;;
58685;SDS011;44465;53.206;-6.106;2023-07-24T10:25:29;1.50;;;0.95;;
58685;SDS011;44465;53.206;-6.106;2023-07-24T10:28:05;1.83;;;1.20;;
58685;SDS011;44465;53.206;-6.106;2023-07-24T10:33:20;1.45;;;1.35;;
58685;SDS011;44465;53.206;-6.106;2023-07-24T10:36:02;1.88;;;1.40;;
58685;SDS011;44465;53.206;-6.106;2023-07-24T10:38:34;1.63;;;1.10;;
58685;SDS011;44465;53.206;-6.106;2023-07-24T10:41:02;1.27;;;1.00;;
58685;SDS011;44465;53.206;-6.106;2023-07-24T10:43:28;1.02;;;0.95;;
58685;SDS011;44465;53.206;-6.106;2023-07-24T10:45:54;0.82;;;0.82;;
58685;SDS011;44465;53.206;-6.106;2023-07-24T10:48:20;1.63;;;1.02;;
58685;SDS011;44465;53.206;-6.106;2023-07-24T10:50:48;1.23;;;1.10;;
58685;SDS011;44465;53.206;-6.106;2023-07-24T10:53:16;1.00;;;0.90;;
58685;SDS011;44465;53.206;-6.106;2023-07-24T10:55:43;2.53;;;0.80;;
58685;SDS011;44465;53.206;-6.106;2023-07-24T10:58:09;1.17;;;1.08;;
58685;SDS011;44465;53.206;-6.106;2023-07-24T11:00:36;1.10;;;1.00;;
58685;SDS011;44465;53.206;-6.106;2023-07-24T11:03:02;1.30;;;0.90;;
58685;SDS011;44465;53.206;-6.106;2023-07-24T11:05:27;1.77;;;1.13;;
58685;SDS011;44465;53.206;-6.106;2023-07-24T11:07:54;1.33;;;1.17;;
58685;SDS011;44465;53.206;-6.106;2023-07-24T11:10:20;0.97;;;0.87;;
58685;SDS011;44465;53.206;-6.106;2023-07-24T11:12:47;2.45;;;1.35;;
58685;SDS011;44465;53.206;-6.106;2023-07-24T11:15:13;1.30;;;1.20;;
58685;SDS011;44465;53.206;-6.106;2023-07-24T11:17:40;0.98;;;0.90;;
58685;SDS011;44465;53.206;-6.106;2023-07-24T11:22:32;1.25;;;1.13;;
58685;SDS011;44465;53.206;-6.106;2023-07-24T11:24:58;1.75;;;0.90;;
58685;SDS011;44465;53.206;-6.106;2023-07-24T11:27:24;2.08;;;1.00;;
58685;SDS011;44465;53.206;-6.106;2023-07-24T11:29:50;1.58;;;0.98;;
58685;SDS011;44465;53.206;-6.106;2023-07-24T11:32:19;1.23;;;1.10;;
58685;SDS011;44465;53.206;-6.106;2023-07-24T11:34:46;1.20;;;1.10;;
58685;SDS011;44465;53.206;-6.106;2023-07-24T11:37:13;1.35;;;1.17;;
58685;SDS011;44465;53.206;-6.106;2023-07-24T11:39:39;1.63;;;1.10;;
58685;SDS011;44465;53.206;-6.106;2023-07-24T11:42:04;1.65;;;1.08;;
58685;SDS011;44465;53.206;-6.106;2023-07-24T11:44:30;1.85;;;1.10;;
58685;SDS011;44465;53.206;-6.106;2023-07-24T11:47:02;0.70;;;0.60;;
58685;SDS011;44465;53.206;-6.106;2023-07-24T11:49:28;0.85;;;0.85;;
58685;SDS011;44465;53.206;-6.106;2023-07-24T11:52:02;0.60;;;0.60;;
58685;SDS011;44465;53.206;-6.106;2023-07-24T11:54:29;1.38;;;1.10;;
58685;SDS011;44465;53.206;-6.106;2023-07-24T11:56:55;0.70;;;0.70;;
58685;SDS011;44465;53.206;-6.106;2023-07-24T11:59:21;0.90;;;0.90;;
58685;SDS011;44465;53.206;-6.106;2023-07-24T12:01:47;0.85;;;0.70;;
58685;SDS011;44465;53.206;-6.106;2023-07-24T12:04:14;1.08;;;0.95;;
58685;SDS011;44465;53.206;-6.106;2023-07-24T12:06:40;1.17;;;1.00;;
58685;SDS011;44465;53.206;-6.106;2023-07-24T12:09:06;1.10;;;1.00;;
58685;SDS011;44465;53.206;-6.106;2023-07-24T12:11:32;0.80;;;0.80;;
58685;SDS011;44465;53.206;-6.106;2023-07-24T12:13:58;0.82;;;0.82;;
58685;SDS011;44465;53.206;-6.106;2023-07-24T12:16:23;0.70;;;0.70;;
58685;SDS011;44465;53.206;-6.106;2023-07-24T12:18:50;0.88;;;0.80;;
58685;SDS011;44465;53.206;-6.106;2023-07-24T12:21:16;1.00;;;1.00;;
58685;SDS011;44465;53.206;-6.106;2023-07-24T12:23:41;1.42;;;0.88;;
58685;SDS011;44465;53.206;-6.106;2023-07-24T12:26:06;0.77;;;0.70;;
58685;SDS011;44465;53.206;-6.106;2023-07-24T12:28:32;1.55;;;1.20;;
58685;SDS011;44465;53.206;-6.106;2023-07-24T12:30:58;0.98;;;0.98;;
58685;SDS011;44465;53.206;-6.106;2023-07-24T12:33:23;1.75;;;0.80;;
58685;SDS011;44465;53.206;-6.106;2023-07-24T12:35:49;0.90;;;0.90;;
58685;SDS011;44465;53.206;-6.106;2023-07-24T12:38:15;1.05;;;0.95;;
58685;SDS011;44465;53.206;-6.106;2023-07-24T12:40:40;0.88;;;0.88;;
58685;SDS011;44465;53.206;-6.106;2023-07-24T12:43:06;0.82;;;0.82;;
58685;SDS011;44465;53.206;-6.106;2023-07-24T12:45:31;1.65;;;0.82;;
58685;SDS011;44465;53.206;-6.106;2023-07-24T12:47:56;0.65;;;0.65;;
58685;SDS011;44465;53.206;-6.106;2023-07-24T12:50:22;1.00;;;0.80;;
58685;SDS011;44465;53.206;-6.106;2023-07-24T12:52:48;2.38;;;0.90;;
58685;SDS011;44465;53.206;-6.106;2023-07-24T12:55:14;1.02;;;0.90;;
58685;SDS011;44465;53.206;-6.106;2023-07-24T12:57:39;1.33;;;0.80;;
58685;SDS011;44465;53.206;-6.106;2023-07-24T13:00:05;0.85;;;0.77;;
58685;SDS011;44465;53.206;-6.106;2023-07-24T13:02:31;0.70;;;0.70;;
58685;SDS011;44465;53.206;-6.106;2023-07-24T13:04:57;1.25;;;1.00;;
58685;SDS011;44465;53.206;-6.106;2023-07-24T13:07:22;1.30;;;0.85;;
58685;SDS011;44465;53.206;-6.106;2023-07-24T13:09:48;0.75;;;0.75;;
58685;SDS011;44465;53.206;-6.106;2023-07-24T13:12:13;1.00;;;0.90;;
58685;SDS011;44465;53.206;-6.106;2023-07-24T13:14:39;1.13;;;0.95;;
58685;SDS011;44465;53.206;-6.106;2023-07-24T13:17:04;1.35;;;0.70;;
58685;SDS011;44465;53.206;-6.106;2023-07-24T13:19:30;1.30;;;0.80;;
58685;SDS011;44465;53.206;-6.106;2023-07-24T13:21:55;1.00;;;0.80;;
58685;SDS011;44465;53.206;-6.106;2023-07-24T13:24:22;0.82;;;0.70;;
58685;SDS011;44465;53.206;-6.106;2023-07-24T13:26:47;0.90;;;0.80;;
58685;SDS011;44465;53.206;-6.106;2023-07-24T13:29:13;1.15;;;0.70;;
58685;SDS011;44465;53.206;-6.106;2023-07-24T13:31:38;1.08;;;0.90;;
58685;SDS011;44465;53.206;-6.106;2023-07-24T13:34:05;1.40;;;0.82;;
58685;SDS011;44465;53.206;-6.106;2023-07-24T13:36:32;0.80;;;0.80;;
58685;SDS011;44465;53.206;-6.106;2023-07-24T13:38:58;0.60;;;0.60;;
58685;SDS011;44465;53.206;-6.106;2023-07-24T13:41:23;0.60;;;0.60;;
58685;SDS011;44465;53.206;-6.106;2023-07-24T13:43:49;0.60;;;0.60;;
58685;SDS011;44465;53.206;-6.106;2023-07-24T13:46:14;0.80;;;0.80;;
58685;SDS011;44465;53.206;-6.106;2023-07-24T13:48:40;1.17;;;1.05;;
58685;SDS011;44465;53.206;-6.106;2023-07-24T13:51:05;1.52;;;1.17;;
58685;SDS011;44465;53.206;-6.106;2023-07-24T13:53:31;0.82;;;0.80;;
58685;SDS011;44465;53.206;-6.106;2023-07-24T13:55:57;1.05;;;0.90;;
58685;SDS011;44465;53.206;-6.106;2023-07-24T13:58:22;0.65;;;0.65;;
58685;SDS011;44465;53.206;-6.106;2023-07-24T14:00:47;0.93;;;0.82;;
58685;SDS011;44465;53.206;-6.106;2023-07-24T14:03:13;1.77;;;0.98;;
58685;SDS011;44465;53.206;-6.106;2023-07-24T14:05:38;0.60;;;0.60;;
58685;SDS011;44465;53.206;-6.106;2023-07-24T14:08:04;1.83;;;0.80;;
58685;SDS011;44465;53.206;-6.106;2023-07-24T14:10:30;0.88;;;0.80;;
58685;SDS011;44465;53.206;-6.106;2023-07-24T14:12:56;0.70;;;0.70;;
58685;SDS011;44465;53.206;-6.106;2023-07-24T14:15:21;2.65;;;1.08;;
58685;SDS011;44465;53.206;-6.106;2023-07-24T14:17:47;0.90;;;0.90;;
58685;SDS011;44465;53.206;-6.106;2023-07-24T14:20:12;1.40;;;0.93;;
58685;SDS011;44465;53.206;-6.106;2023-07-24T14:22:38;0.70;;;0.70;;
58685;SDS011;44465;53.206;-6.106;2023-07-24T14:25:04;1.33;;;0.85;;
58685;SDS011;44465;53.206;-6.106;2023-07-24T14:27:31;0.85;;;0.85;;
58685;SDS011;44465;53.206;-6.106;2023-07-24T14:29:57;1.35;;;0.80;;
58685;SDS011;44465;53.206;-6.106;2023-07-24T14:32:22;0.60;;;0.60;;
58685;SDS011;44465;53.206;-6.106;2023-07-24T14:34:50;1.35;;;1.25;;
58685;SDS011;44465;53.206;-6.106;2023-07-24T14:37:17;1.05;;;0.80;;
58685;SDS011;44465;53.206;-6.106;2023-07-24T14:39:43;0.73;;;0.73;;
58685;SDS011;44465;53.206;-6.106;2023-07-24T14:42:09;1.00;;;0.90;;
58685;SDS011;44465;53.206;-6.106;2023-07-24T14:44:35;0.70;;;0.70;;
58685;SDS011;44465;53.206;-6.106;2023-07-24T14:47:01;0.73;;;0.73;;